sensor_id;sensor_type;location;lat;lon;timestamp;pressure;altitude;pressure_sealevel;temperature;humidity
10992;BME280;5549;47.028;15.514;2022-12-20T00:01:29;97850.13;;;0.37;76.92
10992;BME280;5549;47.028;15.514;2022-12-20T00:03:59;97846.69;;;0.37;77.05
10992;BME280;5549;47.028;15.514;2022-12-20T00:06:28;97843.28;;;0.35;77.21
10992;BME280;5549;47.028;15.514;2022-12-20T00:08:58;97850.97;;;0.38;77.10
10992;BME280;5549;47.028;15.514;2022-12-20T00:11:28;97847.50;;;0.39;77.22
10992;BME280;5549;47.028;15.514;2022-12-20T00:14:01;97850.91;;;0.41;77.23
10992;BME280;5549;47.028;15.514;2022-12-20T00:16:32;97842.19;;;0.45;77.11
10992;BME280;5549;47.028;15.514;2022-12-20T00:19:03;97842.94;;;0.50;76.87
10992;BME280;5549;47.028;15.514;2022-12-20T00:21:33;97847.13;;;0.55;77.05
10992;BME280;5549;47.028;15.514;2022-12-20T00:24:05;97836.69;;;0.58;76.72
10992;BME280;5549;47.028;15.514;2022-12-20T00:26:34;97835.78;;;0.61;76.38
10992;BME280;5549;47.028;15.514;2022-12-20T00:29:05;97834.00;;;0.63;76.57
10992;BME280;5549;47.028;15.514;2022-12-20T00:31:33;97837.47;;;0.62;76.49
10992;BME280;5549;47.028;15.514;2022-12-20T00:34:01;97836.56;;;0.64;76.21
10992;BME280;5549;47.028;15.514;2022-12-20T00:36:30;97825.44;;;0.61;76.20
10992;BME280;5549;47.028;15.514;2022-12-20T00:39:01;97830.69;;;0.58;76.35
10992;BME280;5549;47.028;15.514;2022-12-20T00:41:32;97820.34;;;0.58;76.30
10992;BME280;5549;47.028;15.514;2022-12-20T00:44:00;97819.53;;;0.56;76.75
10992;BME280;5549;47.028;15.514;2022-12-20T00:46:33;97822.19;;;0.53;76.96
10992;BME280;5549;47.028;15.514;2022-12-20T00:49:01;97812.00;;;0.47;77.06
10992;BME280;5549;47.028;15.514;2022-12-20T00:51:32;97811.94;;;0.50;77.34
10992;BME280;5549;47.028;15.514;2022-12-20T00:53:59;97812.00;;;0.47;77.52
10992;BME280;5549;47.028;15.514;2022-12-20T00:56:27;97810.22;;;0.49;77.64
10992;BME280;5549;47.028;15.514;2022-12-20T00:58:57;97812.78;;;0.50;77.29
10992;BME280;5549;47.028;15.514;2022-12-20T01:01:28;97815.41;;;0.49;77.88
10992;BME280;5549;47.028;15.514;2022-12-20T01:04:01;97810.38;;;0.43;77.72
10992;BME280;5549;47.028;15.514;2022-12-20T01:06:31;97811.25;;;0.42;77.64
10992;BME280;5549;47.028;15.514;2022-12-20T01:08:59;97815.63;;;0.40;77.72
10992;BME280;5549;47.028;15.514;2022-12-20T01:11:30;97807.88;;;0.40;77.99
10992;BME280;5549;47.028;15.514;2022-12-20T01:14:01;97796.72;;;0.38;77.92
10992;BME280;5549;47.028;15.514;2022-12-20T01:16:33;97807.91;;;0.38;78.27
10992;BME280;5549;47.028;15.514;2022-12-20T01:19:04;97808.72;;;0.40;78.06
10992;BME280;5549;47.028;15.514;2022-12-20T01:21:35;97808.56;;;0.46;78.12
10992;BME280;5549;47.028;15.514;2022-12-20T01:24:03;97804.41;;;0.41;77.99
10992;BME280;5549;47.028;15.514;2022-12-20T01:26:32;97798.50;;;0.36;78.21
10992;BME280;5549;47.028;15.514;2022-12-20T01:29:00;97801.03;;;0.37;78.26
10992;BME280;5549;47.028;15.514;2022-12-20T01:31:30;97805.16;;;0.44;78.17
10992;BME280;5549;47.028;15.514;2022-12-20T01:33:58;97788.75;;;0.47;77.95
10992;BME280;5549;47.028;15.514;2022-12-20T01:36:32;97777.41;;;0.52;77.98
10992;BME280;5549;47.028;15.514;2022-12-20T01:39:03;97777.44;;;0.51;78.45
10992;BME280;5549;47.028;15.514;2022-12-20T01:41:35;97779.13;;;0.52;77.86
10992;BME280;5549;47.028;15.514;2022-12-20T01:44:05;97782.63;;;0.51;78.18
10992;BME280;5549;47.028;15.514;2022-12-20T01:46:34;97780.84;;;0.53;78.11
10992;BME280;5549;47.028;15.514;2022-12-20T01:49:07;97783.31;;;0.57;78.31
10992;BME280;5549;47.028;15.514;2022-12-20T01:51:42;97779.81;;;0.60;77.44
10992;BME280;5549;47.028;15.514;2022-12-20T01:54:13;97766.25;;;0.50;77.76
10992;BME280;5549;47.028;15.514;2022-12-20T01:56:46;97750.72;;;0.52;77.97
10992;BME280;5549;47.028;15.514;2022-12-20T01:59:16;97748.84;;;0.57;77.69
10992;BME280;5549;47.028;15.514;2022-12-20T02:01:46;97758.34;;;0.56;77.77
10992;BME280;5549;47.028;15.514;2022-12-20T02:04:14;97755.75;;;0.56;77.36
10992;BME280;5549;47.028;15.514;2022-12-20T02:06:43;97756.91;;;0.45;77.73
10992;BME280;5549;47.028;15.514;2022-12-20T02:09:13;97738.06;;;0.41;77.73
10992;BME280;5549;47.028;15.514;2022-12-20T02:12:03;97738.09;;;0.40;78.11
10992;BME280;5549;47.028;15.514;2022-12-20T02:14:58;97744.34;;;0.31;78.13
10992;BME280;5549;47.028;15.514;2022-12-20T02:17:39;97747.84;;;0.28;78.43
10992;BME280;5549;47.028;15.514;2022-12-20T02:21:07;97735.00;;;0.25;78.37
10992;BME280;5549;47.028;15.514;2022-12-20T02:24:10;97722.31;;;0.16;78.93
10992;BME280;5549;47.028;15.514;2022-12-20T02:27:22;97724.09;;;0.14;78.86
10992;BME280;5549;47.028;15.514;2022-12-20T02:30:12;97735.59;;;0.01;79.32
10992;BME280;5549;47.028;15.514;2022-12-20T02:32:56;97736.34;;;0.06;79.59
10992;BME280;5549;47.028;15.514;2022-12-20T02:35:29;97732.06;;;0.05;79.31
10992;BME280;5549;47.028;15.514;2022-12-20T02:37:59;97728.72;;;0.00;79.59
10992;BME280;5549;47.028;15.514;2022-12-20T02:40:38;97728.66;;;0.03;79.23
10992;BME280;5549;47.028;15.514;2022-12-20T02:43:09;97714.78;;;0.07;79.15
10992;BME280;5549;47.028;15.514;2022-12-20T02:46:00;97712.13;;;0.10;79.24
10992;BME280;5549;47.028;15.514;2022-12-20T02:48:30;97698.41;;;0.08;79.00
10992;BME280;5549;47.028;15.514;2022-12-20T02:50:59;97691.81;;;-0.05;79.27
10992;BME280;5549;47.028;15.514;2022-12-20T02:53:33;97687.59;;;-0.09;79.34
10992;BME280;5549;47.028;15.514;2022-12-20T02:56:09;97692.66;;;-0.05;79.77
10992;BME280;5549;47.028;15.514;2022-12-20T02:58:46;97690.34;;;-0.15;80.15
10992;BME280;5549;47.028;15.514;2022-12-20T03:01:22;97699.78;;;-0.14;79.96
10992;BME280;5549;47.028;15.514;2022-12-20T03:03:51;97699.91;;;-0.20;80.27
10992;BME280;5549;47.028;15.514;2022-12-20T03:06:22;97692.00;;;-0.13;80.10
10992;BME280;5549;47.028;15.514;2022-12-20T03:08:50;97695.22;;;-0.03;80.35
10992;BME280;5549;47.028;15.514;2022-12-20T03:11:18;97690.84;;;-0.01;80.09
10992;BME280;5549;47.028;15.514;2022-12-20T03:13:46;97691.59;;;0.06;80.16
10992;BME280;5549;47.028;15.514;2022-12-20T03:16:17;97692.59;;;0.00;79.91
10992;BME280;5549;47.028;15.514;2022-12-20T03:18:45;97701.16;;;0.02;79.97
10992;BME280;5549;47.028;15.514;2022-12-20T03:21:16;97694.06;;;0.10;79.77
10992;BME280;5549;47.028;15.514;2022-12-20T03:23:43;97680.25;;;0.11;79.75
10992;BME280;5549;47.028;15.514;2022-12-20T03:26:11;97682.81;;;0.13;79.61
10992;BME280;5549;47.028;15.514;2022-12-20T03:28:41;97673.63;;;0.01;79.69
10992;BME280;5549;47.028;15.514;2022-12-20T03:31:08;97670.28;;;-0.04;79.99
10992;BME280;5549;47.028;15.514;2022-12-20T03:33:40;97676.31;;;-0.05;80.15
10992;BME280;5549;47.028;15.514;2022-12-20T03:36:07;97678.00;;;-0.04;80.05
10992;BME280;5549;47.028;15.514;2022-12-20T03:38:37;97675.50;;;-0.07;80.36
10992;BME280;5549;47.028;15.514;2022-12-20T03:41:05;97675.50;;;-0.07;80.10
10992;BME280;5549;47.028;15.514;2022-12-20T03:43:33;97664.19;;;0.00;79.84
10992;BME280;5549;47.028;15.514;2022-12-20T03:46:00;97668.22;;;0.10;79.83
10992;BME280;5549;47.028;15.514;2022-12-20T03:48:28;97661.13;;;0.18;79.73
10992;BME280;5549;47.028;15.514;2022-12-20T03:50:57;97669.53;;;0.26;79.82
10992;BME280;5549;47.028;15.514;2022-12-20T03:53:27;97668.56;;;0.30;79.46
10992;BME280;5549;47.028;15.514;2022-12-20T03:55:55;97670.19;;;0.35;79.10
10992;BME280;5549;47.028;15.514;2022-12-20T03:58:25;97668.50;;;0.34;78.77
10992;BME280;5549;47.028;15.514;2022-12-20T04:00:52;97665.22;;;0.27;79.00
10992;BME280;5549;47.028;15.514;2022-12-20T04:03:20;97661.22;;;0.15;78.71
10992;BME280;5549;47.028;15.514;2022-12-20T04:05:48;97661.59;;;0.00;79.48
10992;BME280;5549;47.028;15.514;2022-12-20T04:08:17;97658.94;;;0.03;79.38
10992;BME280;5549;47.028;15.514;2022-12-20T04:10:46;97666.47;;;0.12;79.80
10992;BME280;5549;47.028;15.514;2022-12-20T04:13:34;97661.91;;;0.22;79.49
10992;BME280;5549;47.028;15.514;2022-12-20T04:16:02;97662.63;;;0.27;79.19
10992;BME280;5549;47.028;15.514;2022-12-20T04:18:32;97664.22;;;0.32;79.09
10992;BME280;5549;47.028;15.514;2022-12-20T04:21:00;97667.53;;;0.38;79.12
10992;BME280;5549;47.028;15.514;2022-12-20T04:23:33;97665.66;;;0.43;79.13
10992;BME280;5549;47.028;15.514;2022-12-20T04:26:00;97660.41;;;0.46;78.96
10992;BME280;5549;47.028;15.514;2022-12-20T04:28:28;97664.78;;;0.44;78.93
10992;BME280;5549;47.028;15.514;2022-12-20T04:30:59;97660.50;;;0.43;78.89
10992;BME280;5549;47.028;15.514;2022-12-20T04:33:27;97653.63;;;0.42;78.54
10992;BME280;5549;47.028;15.514;2022-12-20T04:35:55;97658.25;;;0.30;78.22
10992;BME280;5549;47.028;15.514;2022-12-20T04:38:23;97661.78;;;0.26;78.76
10992;BME280;5549;47.028;15.514;2022-12-20T04:40:53;97652.16;;;0.33;78.82
10992;BME280;5549;47.028;15.514;2022-12-20T04:43:22;97652.03;;;0.38;78.92
10992;BME280;5549;47.028;15.514;2022-12-20T04:45:52;97649.59;;;0.31;78.91
10992;BME280;5549;47.028;15.514;2022-12-20T04:48:22;97654.19;;;0.20;78.76
10992;BME280;5549;47.028;15.514;2022-12-20T04:50:52;97655.16;;;0.16;78.87
10992;BME280;5549;47.028;15.514;2022-12-20T04:53:21;97646.53;;;0.17;79.04
10992;BME280;5549;47.028;15.514;2022-12-20T04:56:08;97642.94;;;0.23;78.70
10992;BME280;5549;47.028;15.514;2022-12-20T04:58:35;97649.88;;;0.21;79.07
10992;BME280;5549;47.028;15.514;2022-12-20T05:01:03;97644.81;;;0.16;78.32
10992;BME280;5549;47.028;15.514;2022-12-20T05:03:34;97643.09;;;0.17;78.69
10992;BME280;5549;47.028;15.514;2022-12-20T05:06:02;97652.50;;;0.19;78.26
10992;BME280;5549;47.028;15.514;2022-12-20T05:08:30;97645.53;;;0.23;79.01
10992;BME280;5549;47.028;15.514;2022-12-20T05:10:58;97646.38;;;0.23;78.66
10992;BME280;5549;47.028;15.514;2022-12-20T05:13:27;97643.94;;;0.17;78.73
10992;BME280;5549;47.028;15.514;2022-12-20T05:15:57;97640.63;;;0.12;78.90
10992;BME280;5549;47.028;15.514;2022-12-20T05:18:26;97635.50;;;0.11;78.72
10992;BME280;5549;47.028;15.514;2022-12-20T05:20:55;97632.22;;;0.04;78.79
10992;BME280;5549;47.028;15.514;2022-12-20T05:23:43;97638.13;;;0.09;78.65
10992;BME280;5549;47.028;15.514;2022-12-20T05:26:31;97632.88;;;0.12;78.88
10992;BME280;5549;47.028;15.514;2022-12-20T05:29:01;97632.00;;;0.13;78.76
10992;BME280;5549;47.028;15.514;2022-12-20T05:31:28;97625.81;;;0.19;78.64
10992;BME280;5549;47.028;15.514;2022-12-20T05:33:56;97617.16;;;0.21;78.32
10992;BME280;5549;47.028;15.514;2022-12-20T05:36:24;97625.88;;;0.17;78.75
10992;BME280;5549;47.028;15.514;2022-12-20T05:38:52;97620.84;;;0.11;78.33
10992;BME280;5549;47.028;15.514;2022-12-20T05:41:20;97617.38;;;0.12;78.65
10992;BME280;5549;47.028;15.514;2022-12-20T05:43:50;97614.72;;;0.15;78.53
10992;BME280;5549;47.028;15.514;2022-12-20T05:46:21;97623.16;;;0.22;78.36
10992;BME280;5549;47.028;15.514;2022-12-20T05:48:51;97629.06;;;0.27;78.64
10992;BME280;5549;47.028;15.514;2022-12-20T05:51:21;97626.25;;;0.35;78.34
10992;BME280;5549;47.028;15.514;2022-12-20T05:53:49;97626.19;;;0.38;78.65
10992;BME280;5549;47.028;15.514;2022-12-20T05:56:16;97625.22;;;0.42;78.10
10992;BME280;5549;47.028;15.514;2022-12-20T05:58:44;97622.59;;;0.43;78.24
10992;BME280;5549;47.028;15.514;2022-12-20T06:01:11;97621.66;;;0.46;78.13
10992;BME280;5549;47.028;15.514;2022-12-20T06:03:40;97620.66;;;0.51;78.15
10992;BME280;5549;47.028;15.514;2022-12-20T06:06:08;97605.06;;;0.54;78.25
10992;BME280;5549;47.028;15.514;2022-12-20T06:08:36;97603.63;;;0.44;77.96
10992;BME280;5549;47.028;15.514;2022-12-20T06:11:04;97603.78;;;0.38;77.72
10992;BME280;5549;47.028;15.514;2022-12-20T06:13:32;97616.78;;;0.35;77.94
10992;BME280;5549;47.028;15.514;2022-12-20T06:16:00;97609.22;;;0.27;77.74
10992;BME280;5549;47.028;15.514;2022-12-20T06:18:28;97600.69;;;0.25;77.78
10992;BME280;5549;47.028;15.514;2022-12-20T06:20:57;97599.19;;;0.17;77.90
10992;BME280;5549;47.028;15.514;2022-12-20T06:23:24;97608.22;;;0.01;78.53
10992;BME280;5549;47.028;15.514;2022-12-20T06:25:54;97603.88;;;0.03;78.52
10992;BME280;5549;47.028;15.514;2022-12-20T06:28:25;97599.47;;;0.06;78.67
10992;BME280;5549;47.028;15.514;2022-12-20T06:30:56;97608.91;;;0.07;78.41
10992;BME280;5549;47.028;15.514;2022-12-20T06:33:24;97606.28;;;0.09;78.70
10992;BME280;5549;47.028;15.514;2022-12-20T06:35:52;97603.78;;;0.06;78.89
10992;BME280;5549;47.028;15.514;2022-12-20T06:38:23;97615.69;;;0.11;78.88
10992;BME280;5549;47.028;15.514;2022-12-20T06:40:53;97613.19;;;0.08;78.70
10992;BME280;5549;47.028;15.514;2022-12-20T06:43:21;97621.09;;;0.02;78.71
10992;BME280;5549;47.028;15.514;2022-12-20T06:45:49;97630.66;;;-0.03;78.83
10992;BME280;5549;47.028;15.514;2022-12-20T06:48:16;97620.56;;;-0.12;78.94
10992;BME280;5549;47.028;15.514;2022-12-20T06:50:47;97627.34;;;-0.08;78.94
10992;BME280;5549;47.028;15.514;2022-12-20T06:53:15;97618.56;;;-0.01;78.73
10992;BME280;5549;47.028;15.514;2022-12-20T06:55:46;97614.28;;;-0.02;78.71
10992;BME280;5549;47.028;15.514;2022-12-20T06:58:15;97622.75;;;0.05;78.87
10992;BME280;5549;47.028;15.514;2022-12-20T07:00:43;97618.28;;;0.11;78.71
10992;BME280;5549;47.028;15.514;2022-12-20T07:03:10;97624.28;;;0.12;78.67
10992;BME280;5549;47.028;15.514;2022-12-20T07:05:38;97626.81;;;0.13;78.29
10992;BME280;5549;47.028;15.514;2022-12-20T07:08:08;97625.00;;;0.17;78.45
10992;BME280;5549;47.028;15.514;2022-12-20T07:10:36;97613.78;;;0.50;82.25
10992;BME280;5549;47.028;15.514;2022-12-20T07:13:05;97602.44;;;1.43;86.09
10992;BME280;5549;47.028;15.514;2022-12-20T07:15:34;97612.66;;;2.27;87.85
10992;BME280;5549;47.028;15.514;2022-12-20T07:18:02;97605.91;;;2.94;88.04
10992;BME280;5549;47.028;15.514;2022-12-20T07:20:30;97600.28;;;3.51;88.37
10992;BME280;5549;47.028;15.514;2022-12-20T07:23:00;97593.16;;;3.99;88.06
10992;BME280;5549;47.028;15.514;2022-12-20T07:25:27;97589.03;;;4.35;85.30
10992;BME280;5549;47.028;15.514;2022-12-20T07:27:55;97583.19;;;4.69;82.93
10992;BME280;5549;47.028;15.514;2022-12-20T07:30:25;97575.84;;;4.98;80.22
10992;BME280;5549;47.028;15.514;2022-12-20T07:32:54;97581.25;;;5.12;76.88
10992;BME280;5549;47.028;15.514;2022-12-20T07:35:22;97588.66;;;5.40;76.27
10992;BME280;5549;47.028;15.514;2022-12-20T07:37:50;97596.31;;;5.62;74.25
10992;BME280;5549;47.028;15.514;2022-12-20T07:40:19;97600.47;;;5.83;71.34
10992;BME280;5549;47.028;15.514;2022-12-20T07:42:47;97600.16;;;6.08;68.58
10992;BME280;5549;47.028;15.514;2022-12-20T07:45:15;97599.09;;;6.29;66.26
10992;BME280;5549;47.028;15.514;2022-12-20T07:47:44;97591.63;;;6.39;66.45
10992;BME280;5549;47.028;15.514;2022-12-20T07:50:12;97588.13;;;6.23;64.00
10992;BME280;5549;47.028;15.514;2022-12-20T07:52:41;97587.63;;;5.61;62.63
10992;BME280;5549;47.028;15.514;2022-12-20T07:55:11;97582.91;;;4.75;61.79
10992;BME280;5549;47.028;15.514;2022-12-20T07:57:46;97581.25;;;3.73;62.91
10992;BME280;5549;47.028;15.514;2022-12-20T08:00:16;97595.16;;;3.27;64.94
10992;BME280;5549;47.028;15.514;2022-12-20T08:02:53;97592.38;;;2.86;65.70
10992;BME280;5549;47.028;15.514;2022-12-20T08:05:22;97586.38;;;2.37;67.71
10992;BME280;5549;47.028;15.514;2022-12-20T08:07:52;97583.63;;;1.92;69.27
10992;BME280;5549;47.028;15.514;2022-12-20T08:10:21;97592.59;;;1.82;69.67
10992;BME280;5549;47.028;15.514;2022-12-20T08:12:49;97603.31;;;1.70;70.90
10992;BME280;5549;47.028;15.514;2022-12-20T08:15:18;97608.81;;;1.59;70.81
10992;BME280;5549;47.028;15.514;2022-12-20T08:17:49;97604.78;;;1.50;71.53
10992;BME280;5549;47.028;15.514;2022-12-20T08:20:17;97599.47;;;1.55;71.83
10992;BME280;5549;47.028;15.514;2022-12-20T08:22:45;97597.88;;;1.51;71.72
10992;BME280;5549;47.028;15.514;2022-12-20T08:25:13;97589.66;;;1.38;71.98
10992;BME280;5549;47.028;15.514;2022-12-20T08:27:43;97584.41;;;1.12;72.36
10992;BME280;5549;47.028;15.514;2022-12-20T08:30:11;97586.63;;;0.96;72.92
10992;BME280;5549;47.028;15.514;2022-12-20T08:32:41;97590.09;;;0.95;73.66
10992;BME280;5549;47.028;15.514;2022-12-20T08:35:13;97585.78;;;0.95;74.20
10992;BME280;5549;47.028;15.514;2022-12-20T08:37:42;97586.56;;;0.98;74.32
10992;BME280;5549;47.028;15.514;2022-12-20T08:40:11;97578.53;;;1.07;74.45
10992;BME280;5549;47.028;15.514;2022-12-20T08:42:39;97582.53;;;1.17;73.98
10992;BME280;5549;47.028;15.514;2022-12-20T08:45:08;97574.53;;;1.24;73.78
10992;BME280;5549;47.028;15.514;2022-12-20T08:47:36;97574.59;;;1.23;73.84
10992;BME280;5549;47.028;15.514;2022-12-20T08:50:04;97582.16;;;1.29;74.00
10992;BME280;5549;47.028;15.514;2022-12-20T08:52:33;97577.09;;;1.26;73.26
10992;BME280;5549;47.028;15.514;2022-12-20T08:55:01;97578.13;;;1.20;73.62
10992;BME280;5549;47.028;15.514;2022-12-20T08:57:29;97574.63;;;1.21;73.77
10992;BME280;5549;47.028;15.514;2022-12-20T08:59:56;97578.03;;;1.23;73.93
10992;BME280;5549;47.028;15.514;2022-12-20T09:02:24;97573.50;;;1.30;73.58
10992;BME280;5549;47.028;15.514;2022-12-20T09:04:51;97571.63;;;1.35;73.85
10992;BME280;5549;47.028;15.514;2022-12-20T09:07:19;97566.25;;;1.41;74.08
10992;BME280;5549;47.028;15.514;2022-12-20T09:09:50;97572.22;;;1.43;74.09
10992;BME280;5549;47.028;15.514;2022-12-20T09:12:18;97573.31;;;1.36;74.13
10992;BME280;5549;47.028;15.514;2022-12-20T09:14:46;97569.19;;;1.31;73.94
10992;BME280;5549;47.028;15.514;2022-12-20T09:17:13;97574.31;;;1.32;73.96
10992;BME280;5549;47.028;15.514;2022-12-20T09:19:41;97571.72;;;1.32;74.03
10992;BME280;5549;47.028;15.514;2022-12-20T09:22:09;97571.66;;;1.34;74.21
10992;BME280;5549;47.028;15.514;2022-12-20T09:24:37;97571.81;;;1.29;74.11
10992;BME280;5549;47.028;15.514;2022-12-20T09:27:08;97573.56;;;1.28;74.37
10992;BME280;5549;47.028;15.514;2022-12-20T09:29:35;97569.22;;;1.29;74.27
10992;BME280;5549;47.028;15.514;2022-12-20T09:32:03;97567.53;;;1.28;74.50
10992;BME280;5549;47.028;15.514;2022-12-20T09:34:31;97558.84;;;1.31;74.63
10992;BME280;5549;47.028;15.514;2022-12-20T09:36:58;97552.00;;;1.28;74.47
10992;BME280;5549;47.028;15.514;2022-12-20T09:39:28;97553.47;;;1.09;74.55
10992;BME280;5549;47.028;15.514;2022-12-20T09:41:57;97559.91;;;0.95;74.36
10992;BME280;5549;47.028;15.514;2022-12-20T09:44:29;97553.19;;;0.90;74.72
10992;BME280;5549;47.028;15.514;2022-12-20T09:47:00;97550.78;;;0.84;75.08
10992;BME280;5549;47.028;15.514;2022-12-20T09:49:32;97540.47;;;0.82;75.62
10992;BME280;5549;47.028;15.514;2022-12-20T09:55:21;97544.31;;;0.69;76.04
10992;BME280;5549;47.028;15.514;2022-12-20T09:58:13;97545.16;;;0.70;75.91
10992;BME280;5549;47.028;15.514;2022-12-20T10:00:48;97535.75;;;0.67;75.77
10992;BME280;5549;47.028;15.514;2022-12-20T10:03:20;97528.81;;;0.69;76.45
10992;BME280;5549;47.028;15.514;2022-12-20T10:05:52;97534.06;;;0.66;76.20
10992;BME280;5549;47.028;15.514;2022-12-20T10:08:42;97528.19;;;0.61;76.32
10992;BME280;5549;47.028;15.514;2022-12-20T10:11:27;97535.22;;;0.56;76.36
10992;BME280;5549;47.028;15.514;2022-12-20T10:14:06;97534.34;;;0.57;76.85
10992;BME280;5549;47.028;15.514;2022-12-20T10:16:44;97528.09;;;0.64;76.24
10992;BME280;5549;47.028;15.514;2022-12-20T10:19:36;97528.72;;;0.72;76.56
10992;BME280;5549;47.028;15.514;2022-12-20T10:22:15;97529.72;;;0.68;75.95
10992;BME280;5549;47.028;15.514;2022-12-20T10:24:55;97523.72;;;0.66;76.22
10992;BME280;5549;47.028;15.514;2022-12-20T10:27:27;97515.97;;;0.66;76.17
10992;BME280;5549;47.028;15.514;2022-12-20T10:29:55;97518.38;;;0.72;76.28
10992;BME280;5549;47.028;15.514;2022-12-20T10:32:25;97517.34;;;0.78;76.51
10992;BME280;5549;47.028;15.514;2022-12-20T10:35:00;97508.53;;;0.85;76.62
10992;BME280;5549;47.028;15.514;2022-12-20T10:37:57;97504.00;;;0.91;76.31
10992;BME280;5549;47.028;15.514;2022-12-20T10:40:29;97489.56;;;0.84;76.08
10992;BME280;5549;47.028;15.514;2022-12-20T10:43:00;97485.38;;;0.80;76.03
10992;BME280;5549;47.028;15.514;2022-12-20T10:45:34;97479.94;;;0.89;76.48
10992;BME280;5549;47.028;15.514;2022-12-20T10:48:27;97472.97;;;0.91;75.99
10992;BME280;5549;47.028;15.514;2022-12-20T10:50:58;97466.75;;;0.97;75.85
10992;BME280;5549;47.028;15.514;2022-12-20T10:53:30;97457.88;;;1.06;76.22
10992;BME280;5549;47.028;15.514;2022-12-20T10:56:17;97455.19;;;1.09;75.82
10992;BME280;5549;47.028;15.514;2022-12-20T10:58:53;97451.59;;;1.13;75.86
10992;BME280;5549;47.028;15.514;2022-12-20T11:01:27;97451.41;;;1.19;75.91
10992;BME280;5549;47.028;15.514;2022-12-20T11:04:01;97445.44;;;1.17;75.65
10992;BME280;5549;47.028;15.514;2022-12-20T11:06:41;97450.72;;;1.14;75.40
10992;BME280;5549;47.028;15.514;2022-12-20T11:09:23;97439.59;;;1.10;75.46
10992;BME280;5549;47.028;15.514;2022-12-20T11:12:04;97433.59;;;1.10;74.78
10992;BME280;5549;47.028;15.514;2022-12-20T11:14:35;97440.06;;;0.96;75.25
10992;BME280;5549;47.028;15.514;2022-12-20T11:17:14;97432.25;;;0.98;75.59
10992;BME280;5549;47.028;15.514;2022-12-20T11:20:15;97421.66;;;1.06;75.44
10992;BME280;5549;47.028;15.514;2022-12-20T11:22:58;97419.75;;;1.11;75.08
10992;BME280;5549;47.028;15.514;2022-12-20T11:25:49;97420.66;;;1.10;74.88
10992;BME280;5549;47.028;15.514;2022-12-20T11:28:52;97417.28;;;1.08;75.04
10992;BME280;5549;47.028;15.514;2022-12-20T11:31:35;97414.59;;;1.11;75.14
10992;BME280;5549;47.028;15.514;2022-12-20T11:34:22;97407.56;;;1.14;75.29
10992;BME280;5549;47.028;15.514;2022-12-20T11:37:16;97410.00;;;1.19;75.28
10992;BME280;5549;47.028;15.514;2022-12-20T11:39:56;97401.41;;;1.18;74.72
10992;BME280;5549;47.028;15.514;2022-12-20T11:42:45;97404.03;;;1.17;75.04
10992;BME280;5549;47.028;15.514;2022-12-20T11:45:23;97394.78;;;1.10;74.63
10992;BME280;5549;47.028;15.514;2022-12-20T11:48:29;97389.19;;;0.97;75.07
10992;BME280;5549;47.028;15.514;2022-12-20T11:51:14;97383.16;;;0.96;75.09
10992;BME280;5549;47.028;15.514;2022-12-20T11:53:55;97382.72;;;0.84;75.44
10992;BME280;5549;47.028;15.514;2022-12-20T11:56:29;97394.41;;;0.69;76.04
10992;BME280;5549;47.028;15.514;2022-12-20T11:59:02;97384.16;;;0.66;76.46
10992;BME280;5549;47.028;15.514;2022-12-20T12:01:37;97387.91;;;0.56;76.69
10992;BME280;5549;47.028;15.514;2022-12-20T12:04:13;97387.03;;;0.57;76.65
10992;BME280;5549;47.028;15.514;2022-12-20T12:06:48;97388.91;;;0.52;77.38
10992;BME280;5549;47.028;15.514;2022-12-20T12:09:27;97375.78;;;0.58;76.55
10992;BME280;5549;47.028;15.514;2022-12-20T12:12:02;97365.41;;;0.59;76.63
10992;BME280;5549;47.028;15.514;2022-12-20T12:14:44;97373.75;;;0.68;76.98
10992;BME280;5549;47.028;15.514;2022-12-20T12:17:24;97366.81;;;0.70;76.74
10992;BME280;5549;47.028;15.514;2022-12-20T12:19:58;97365.81;;;0.74;76.62
10992;BME280;5549;47.028;15.514;2022-12-20T12:22:32;97364.03;;;0.76;76.73
10992;BME280;5549;47.028;15.514;2022-12-20T12:25:10;97364.75;;;0.79;76.52
10992;BME280;5549;47.028;15.514;2022-12-20T12:27:42;97376.69;;;0.83;76.53
10992;BME280;5549;47.028;15.514;2022-12-20T12:30:13;97375.00;;;0.82;76.25
10992;BME280;5549;47.028;15.514;2022-12-20T12:32:46;97370.03;;;0.76;76.57
10992;BME280;5549;47.028;15.514;2022-12-20T12:35:47;97362.53;;;0.69;76.80
10992;BME280;5549;47.028;15.514;2022-12-20T12:42:08;97361.28;;;0.80;76.60
10992;BME280;5549;47.028;15.514;2022-12-20T12:44:45;97361.84;;;0.90;77.09
10992;BME280;5549;47.028;15.514;2022-12-20T12:47:20;97373.66;;;0.97;76.99
10992;BME280;5549;47.028;15.514;2022-12-20T12:49:51;97367.66;;;0.96;76.54
10992;BME280;5549;47.028;15.514;2022-12-20T12:52:39;97356.56;;;0.93;76.37
10992;BME280;5549;47.028;15.514;2022-12-20T12:55:37;97359.28;;;0.88;76.64
10992;BME280;5549;47.028;15.514;2022-12-20T12:58:33;97361.97;;;0.85;76.24
10992;BME280;5549;47.028;15.514;2022-12-20T13:01:04;97361.94;;;0.87;76.52
10992;BME280;5549;47.028;15.514;2022-12-20T13:03:44;97364.41;;;0.90;76.25
10992;BME280;5549;47.028;15.514;2022-12-20T13:06:54;97360.34;;;0.83;76.68
10992;BME280;5549;47.028;15.514;2022-12-20T13:09:40;97357.59;;;0.87;76.99
10992;BME280;5549;47.028;15.514;2022-12-20T13:12:52;97363.41;;;0.94;76.46
10992;BME280;5549;47.028;15.514;2022-12-20T13:16:08;97355.56;;;0.97;76.82
10992;BME280;5549;47.028;15.514;2022-12-20T13:18:37;97359.09;;;0.94;76.58
10992;BME280;5549;47.028;15.514;2022-12-20T13:21:40;97353.31;;;0.86;76.78
10992;BME280;5549;47.028;15.514;2022-12-20T13:24:51;97348.34;;;0.80;76.50
10992;BME280;5549;47.028;15.514;2022-12-20T13:27:33;97351.88;;;0.78;76.81
10992;BME280;5549;47.028;15.514;2022-12-20T13:30:26;97352.75;;;0.78;76.64
10992;BME280;5549;47.028;15.514;2022-12-20T13:33:16;97357.25;;;0.72;76.69
10992;BME280;5549;47.028;15.514;2022-12-20T13:38:58;97343.88;;;0.59;77.24
10992;BME280;5549;47.028;15.514;2022-12-20T13:41:40;97344.69;;;0.61;77.79
10992;BME280;5549;47.028;15.514;2022-12-20T13:44:35;97346.47;;;0.59;77.66
10992;BME280;5549;47.028;15.514;2022-12-20T13:47:29;97349.78;;;0.36;78.48
10992;BME280;5549;47.028;15.514;2022-12-20T13:50:29;97340.09;;;0.43;78.39
10992;BME280;5549;47.028;15.514;2022-12-20T13:52:58;97344.31;;;0.45;78.32
10992;BME280;5549;47.028;15.514;2022-12-20T13:55:37;97350.03;;;0.55;78.24